sensor_id;sensor_type;location;lat;lon;timestamp;pressure;altitude;pressure_sealevel;temperature;humidity
18022;BME280;9136;48.822;7.966;2023-01-25T00:02:39;101957.72;;;2.17;100.00
18022;BME280;9136;48.822;7.966;2023-01-25T00:05:26;101976.22;;;2.29;100.00
18022;BME280;9136;48.822;7.966;2023-01-25T00:08:14;101961.22;;;2.19;100.00
18022;BME280;9136;48.822;7.966;2023-01-25T00:11:02;101960.34;;;2.18;100.00
18022;BME280;9136;48.822;7.966;2023-01-25T00:13:52;101944.47;;;2.08;100.00
18022;BME280;9136;48.822;7.966;2023-01-25T00:16:40;101943.72;;;2.12;100.00
18022;BME280;9136;48.822;7.966;2023-01-25T00:19:30;101959.63;;;2.22;100.00
18022;BME280;9136;48.822;7.966;2023-01-25T00:22:18;101956.84;;;2.16;100.00
18022;BME280;9136;48.822;7.966;2023-01-25T00:25:06;101977.97;;;2.30;100.00
18022;BME280;9136;48.822;7.966;2023-01-25T00:27:54;101934.06;;;2.06;100.00
18022;BME280;9136;48.822;7.966;2023-01-25T00:30:42;101944.78;;;2.18;100.00
18022;BME280;9136;48.822;7.966;2023-01-25T00:33:38;101955.13;;;2.17;100.00
18022;BME280;9136;48.822;7.966;2023-01-25T00:36:32;101946.38;;;2.13;100.00
18022;BME280;9136;48.822;7.966;2023-01-25T00:39:20;101948.19;;;2.16;100.00
18022;BME280;9136;48.822;7.966;2023-01-25T00:42:09;101929.56;;;2.00;100.00
18022;BME280;9136;48.822;7.966;2023-01-25T00:44:57;101935.03;;;2.10;100.00
18022;BME280;9136;48.822;7.966;2023-01-25T00:47:45;101930.59;;;2.06;100.00
18022;BME280;9136;48.822;7.966;2023-01-25T00:50:37;101921.19;;;2.09;100.00
18022;BME280;9136;48.822;7.966;2023-01-25T00:53:27;101926.41;;;2.11;100.00
18022;BME280;9136;48.822;7.966;2023-01-25T00:56:15;101921.06;;;2.05;100.00
18022;BME280;9136;48.822;7.966;2023-01-25T00:59:03;101928.09;;;2.09;100.00
18022;BME280;9136;48.822;7.966;2023-01-25T01:01:52;101938.69;;;2.16;100.00
18022;BME280;9136;48.822;7.966;2023-01-25T01:04:40;101913.97;;;1.99;100.00
18022;BME280;9136;48.822;7.966;2023-01-25T01:07:28;101933.47;;;2.15;100.00
18022;BME280;9136;48.822;7.966;2023-01-25T01:10:17;101923.94;;;2.14;100.00
18022;BME280;9136;48.822;7.966;2023-01-25T01:13:05;101940.44;;;2.17;100.00
18022;BME280;9136;48.822;7.966;2023-01-25T01:15:54;101909.03;;;2.07;100.00
18022;BME280;9136;48.822;7.966;2023-01-25T01:18:44;101914.13;;;2.04;100.00
18022;BME280;9136;48.822;7.966;2023-01-25T01:21:32;101902.91;;;2.05;100.00
18022;BME280;9136;48.822;7.966;2023-01-25T01:24:20;101889.13;;;2.06;100.00
18022;BME280;9136;48.822;7.966;2023-01-25T01:27:09;101918.84;;;2.18;100.00
18022;BME280;9136;48.822;7.966;2023-01-25T01:29:57;101914.56;;;2.19;100.00
18022;BME280;9136;48.822;7.966;2023-01-25T01:32:45;101917.97;;;2.18;100.00
18022;BME280;9136;48.822;7.966;2023-01-25T01:35:35;101915.09;;;2.07;100.00
18022;BME280;9136;48.822;7.966;2023-01-25T01:38:23;101915.03;;;2.06;100.00
18022;BME280;9136;48.822;7.966;2023-01-25T01:41:12;101919.34;;;2.05;100.00
18022;BME280;9136;48.822;7.966;2023-01-25T01:44:02;101888.69;;;1.92;100.00
18022;BME280;9136;48.822;7.966;2023-01-25T01:46:52;101914.25;;;2.08;100.00
18022;BME280;9136;48.822;7.966;2023-01-25T01:49:42;101901.09;;;2.02;100.00
18022;BME280;9136;48.822;7.966;2023-01-25T01:52:35;101908.22;;;2.09;100.00
18022;BME280;9136;48.822;7.966;2023-01-25T01:55:23;101915.84;;;2.03;100.00
18022;BME280;9136;48.822;7.966;2023-01-25T01:58:11;101907.94;;;2.00;100.00
18022;BME280;9136;48.822;7.966;2023-01-25T02:01:01;101904.63;;;2.04;100.00
18022;BME280;9136;48.822;7.966;2023-01-25T02:03:49;101916.16;;;2.14;100.00
18022;BME280;9136;48.822;7.966;2023-01-25T02:06:43;101901.25;;;2.07;100.00
18022;BME280;9136;48.822;7.966;2023-01-25T02:09:33;101924.81;;;2.14;100.00
18022;BME280;9136;48.822;7.966;2023-01-25T02:12:22;101902.88;;;2.03;100.00
18022;BME280;9136;48.822;7.966;2023-01-25T02:15:12;101894.13;;;1.99;100.00
18022;BME280;9136;48.822;7.966;2023-01-25T02:18:01;101895.03;;;2.01;100.00
18022;BME280;9136;48.822;7.966;2023-01-25T02:20:51;101900.28;;;2.03;100.00
18022;BME280;9136;48.822;7.966;2023-01-25T02:23:44;101884.59;;;1.98;100.00
18022;BME280;9136;48.822;7.966;2023-01-25T02:26:36;101889.00;;;2.03;100.00
18022;BME280;9136;48.822;7.966;2023-01-25T02:29:25;101896.94;;;2.07;100.00
18022;BME280;9136;48.822;7.966;2023-01-25T02:32:14;101888.84;;;1.96;100.00
18022;BME280;9136;48.822;7.966;2023-01-25T02:35:04;101876.72;;;1.95;100.00
18022;BME280;9136;48.822;7.966;2023-01-25T02:37:52;101883.78;;;2.01;100.00
18022;BME280;9136;48.822;7.966;2023-01-25T02:40:44;101879.44;;;2.00;100.00
18022;BME280;9136;48.822;7.966;2023-01-25T02:43:35;101869.66;;;1.90;100.00
18022;BME280;9136;48.822;7.966;2023-01-25T02:46:26;101859.31;;;1.91;100.00
18022;BME280;9136;48.822;7.966;2023-01-25T02:49:15;101892.66;;;2.09;100.00
18022;BME280;9136;48.822;7.966;2023-01-25T02:52:04;101858.47;;;1.92;100.00
18022;BME280;9136;48.822;7.966;2023-01-25T02:54:52;101871.63;;;1.98;100.00
18022;BME280;9136;48.822;7.966;2023-01-25T02:57:40;101857.53;;;1.89;100.00
18022;BME280;9136;48.822;7.966;2023-01-25T03:00:29;101863.53;;;1.88;100.00
18022;BME280;9136;48.822;7.966;2023-01-25T03:03:17;101889.91;;;2.03;100.00
18022;BME280;9136;48.822;7.966;2023-01-25T03:06:05;101859.44;;;1.94;100.00
18022;BME280;9136;48.822;7.966;2023-01-25T03:08:53;101841.75;;;1.81;100.00
18022;BME280;9136;48.822;7.966;2023-01-25T03:11:41;101849.56;;;1.83;100.00
18022;BME280;9136;48.822;7.966;2023-01-25T03:14:29;101839.13;;;1.80;100.00
18022;BME280;9136;48.822;7.966;2023-01-25T03:17:18;101846.25;;;1.87;100.00
18022;BME280;9136;48.822;7.966;2023-01-25T03:20:07;101854.03;;;1.87;100.00
18022;BME280;9136;48.822;7.966;2023-01-25T03:22:55;101867.22;;;1.94;100.00
18022;BME280;9136;48.822;7.966;2023-01-25T03:25:42;101850.44;;;1.83;100.00
18022;BME280;9136;48.822;7.966;2023-01-25T03:28:30;101834.75;;;1.77;100.00
18022;BME280;9136;48.822;7.966;2023-01-25T03:31:18;101852.34;;;1.89;100.00
18022;BME280;9136;48.822;7.966;2023-01-25T03:34:07;101835.59;;;1.78;100.00
18022;BME280;9136;48.822;7.966;2023-01-25T03:36:55;101841.78;;;1.83;100.00
18022;BME280;9136;48.822;7.966;2023-01-25T03:39:43;101837.44;;;1.82;100.00
18022;BME280;9136;48.822;7.966;2023-01-25T03:42:31;101845.44;;;1.89;100.00
18022;BME280;9136;48.822;7.966;2023-01-25T03:45:19;101853.38;;;1.94;100.00
18022;BME280;9136;48.822;7.966;2023-01-25T03:48:07;101839.13;;;1.80;100.00
18022;BME280;9136;48.822;7.966;2023-01-25T03:50:58;101837.44;;;1.82;100.00
18022;BME280;9136;48.822;7.966;2023-01-25T03:53:46;101830.38;;;1.76;100.00
18022;BME280;9136;48.822;7.966;2023-01-25T03:56:33;101840.03;;;1.82;100.00
18022;BME280;9136;48.822;7.966;2023-01-25T03:59:21;101854.84;;;1.86;100.00
18022;BME280;9136;48.822;7.966;2023-01-25T04:02:09;101817.16;;;1.67;100.00
18022;BME280;9136;48.822;7.966;2023-01-25T04:04:58;101839.88;;;1.76;100.00
18022;BME280;9136;48.822;7.966;2023-01-25T04:07:47;101860.91;;;1.86;100.00
18022;BME280;9136;48.822;7.966;2023-01-25T04:10:34;101815.41;;;1.66;100.00
18022;BME280;9136;48.822;7.966;2023-01-25T04:13:23;101856.56;;;1.85;100.00
18022;BME280;9136;48.822;7.966;2023-01-25T04:16:11;101836.31;;;1.72;100.00
18022;BME280;9136;48.822;7.966;2023-01-25T04:18:59;101836.50;;;1.78;100.00
18022;BME280;9136;48.822;7.966;2023-01-25T04:21:46;101828.25;;;1.63;100.00
18022;BME280;9136;48.822;7.966;2023-01-25T04:24:36;101816.34;;;1.68;100.00
18022;BME280;9136;48.822;7.966;2023-01-25T04:27:24;101844.31;;;1.80;100.00
18022;BME280;9136;48.822;7.966;2023-01-25T04:30:12;101847.72;;;1.79;100.00
18022;BME280;9136;48.822;7.966;2023-01-25T04:33:03;101817.22;;;1.68;100.00
18022;BME280;9136;48.822;7.966;2023-01-25T04:35:52;101810.19;;;1.64;100.00
18022;BME280;9136;48.822;7.966;2023-01-25T04:38:39;101838.31;;;1.82;100.00
18022;BME280;9136;48.822;7.966;2023-01-25T04:41:29;101814.88;;;1.78;100.00
18022;BME280;9136;48.822;7.966;2023-01-25T04:44:16;101813.03;;;1.73;100.00
18022;BME280;9136;48.822;7.966;2023-01-25T04:47:04;101812.88;;;1.67;100.00
18022;BME280;9136;48.822;7.966;2023-01-25T04:49:52;101802.50;;;1.67;100.00
18022;BME280;9136;48.822;7.966;2023-01-25T04:52:40;101815.38;;;1.64;100.00
18022;BME280;9136;48.822;7.966;2023-01-25T04:55:28;101825.81;;;1.67;100.00
18022;BME280;9136;48.822;7.966;2023-01-25T04:58:17;101819.91;;;1.73;100.00
18022;BME280;9136;48.822;7.966;2023-01-25T05:01:05;101830.38;;;1.76;100.00
18022;BME280;9136;48.822;7.966;2023-01-25T05:03:53;101829.66;;;1.82;100.00
18022;BME280;9136;48.822;7.966;2023-01-25T05:06:41;101822.50;;;1.73;100.00
18022;BME280;9136;48.822;7.966;2023-01-25T05:09:28;101835.88;;;1.87;100.00
18022;BME280;9136;48.822;7.966;2023-01-25T05:12:16;101819.31;;;1.82;100.00
18022;BME280;9136;48.822;7.966;2023-01-25T05:15:07;101793.94;;;1.70;100.00
18022;BME280;9136;48.822;7.966;2023-01-25T05:17:55;101812.38;;;1.81;100.00
18022;BME280;9136;48.822;7.966;2023-01-25T05:20:42;101841.22;;;1.93;100.00
18022;BME280;9136;48.822;7.966;2023-01-25T05:23:30;101816.72;;;1.82;100.00
18022;BME280;9136;48.822;7.966;2023-01-25T05:26:18;101819.28;;;1.80;100.00
18022;BME280;9136;48.822;7.966;2023-01-25T05:29:23;101816.63;;;1.79;100.00
18022;BME280;9136;48.822;7.966;2023-01-25T05:32:14;101807.84;;;1.73;100.00
18022;BME280;9136;48.822;7.966;2023-01-25T05:35:02;101835.13;;;1.91;100.00
18022;BME280;9136;48.822;7.966;2023-01-25T05:37:50;101811.47;;;1.79;100.00
18022;BME280;9136;48.822;7.966;2023-01-25T05:40:42;101824.69;;;1.88;100.00
18022;BME280;9136;48.822;7.966;2023-01-25T05:43:29;101803.81;;;1.83;100.00
18022;BME280;9136;48.822;7.966;2023-01-25T05:46:17;101793.06;;;1.69;100.00
18022;BME280;9136;48.822;7.966;2023-01-25T05:49:07;101813.25;;;1.81;100.00
18022;BME280;9136;48.822;7.966;2023-01-25T05:51:55;101801.03;;;1.76;100.00
18022;BME280;9136;48.822;7.966;2023-01-25T05:54:43;101829.78;;;1.85;100.00
18022;BME280;9136;48.822;7.966;2023-01-25T05:57:31;101817.66;;;1.84;100.00
18022;BME280;9136;48.822;7.966;2023-01-25T06:00:21;101809.75;;;1.79;100.00
18022;BME280;9136;48.822;7.966;2023-01-25T06:03:09;101795.00;;;1.77;100.00
18022;BME280;9136;48.822;7.966;2023-01-25T06:05:59;101801.13;;;1.80;100.00
18022;BME280;9136;48.822;7.966;2023-01-25T06:08:48;101786.09;;;1.67;100.00
18022;BME280;9136;48.822;7.966;2023-01-25T06:11:36;101788.69;;;1.67;100.00
18022;BME280;9136;48.822;7.966;2023-01-25T06:14:24;101779.91;;;1.63;100.00
18022;BME280;9136;48.822;7.966;2023-01-25T06:17:11;101822.03;;;1.86;100.00
18022;BME280;9136;48.822;7.966;2023-01-25T06:20:23;101816.06;;;1.89;100.00
18022;BME280;9136;48.822;7.966;2023-01-25T06:23:16;101804.63;;;1.82;100.00
18022;BME280;9136;48.822;7.966;2023-01-25T06:26:05;101804.72;;;1.84;100.00
18022;BME280;9136;48.822;7.966;2023-01-25T06:28:53;101791.75;;;1.84;100.00
18022;BME280;9136;48.822;7.966;2023-01-25T06:31:41;101792.53;;;1.81;100.00
18022;BME280;9136;48.822;7.966;2023-01-25T06:34:29;101779.31;;;1.72;100.00
18022;BME280;9136;48.822;7.966;2023-01-25T06:37:17;101770.69;;;1.73;100.00
18022;BME280;9136;48.822;7.966;2023-01-25T06:40:08;101778.63;;;1.78;100.00
18022;BME280;9136;48.822;7.966;2023-01-25T06:43:05;101779.59;;;1.83;100.00
18022;BME280;9136;48.822;7.966;2023-01-25T06:45:57;101772.66;;;1.82;100.00
18022;BME280;9136;48.822;7.966;2023-01-25T06:48:45;101772.84;;;1.88;100.00
18022;BME280;9136;48.822;7.966;2023-01-25T06:51:32;101776.19;;;1.84;100.00
18022;BME280;9136;48.822;7.966;2023-01-25T06:54:20;101783.19;;;1.86;100.00
18022;BME280;9136;48.822;7.966;2023-01-25T06:57:10;101778.69;;;1.81;100.00
18022;BME280;9136;48.822;7.966;2023-01-25T06:59:59;101748.94;;;1.66;100.00
18022;BME280;9136;48.822;7.966;2023-01-25T07:02:46;101758.69;;;1.75;100.00
18022;BME280;9136;48.822;7.966;2023-01-25T07:05:34;101775.28;;;1.83;100.00
18022;BME280;9136;48.822;7.966;2023-01-25T07:08:22;101773.66;;;1.85;100.00
18022;BME280;9136;48.822;7.966;2023-01-25T07:11:11;101752.53;;;1.71;100.00
18022;BME280;9136;48.822;7.966;2023-01-25T07:14:02;101793.41;;;1.82;100.00
18022;BME280;9136;48.822;7.966;2023-01-25T07:16:50;101750.63;;;1.64;100.00
18022;BME280;9136;48.822;7.966;2023-01-25T07:19:37;101764.72;;;1.74;100.00
18022;BME280;9136;48.822;7.966;2023-01-25T07:22:25;101763.03;;;1.76;100.00
18022;BME280;9136;48.822;7.966;2023-01-25T07:25:13;101766.31;;;1.70;100.00
18022;BME280;9136;48.822;7.966;2023-01-25T07:28:02;101783.00;;;1.80;100.00
18022;BME280;9136;48.822;7.966;2023-01-25T07:30:52;101775.06;;;1.74;100.00
18022;BME280;9136;48.822;7.966;2023-01-25T07:33:41;101760.44;;;1.76;100.00
18022;BME280;9136;48.822;7.966;2023-01-25T07:36:29;101752.56;;;1.73;100.00
18022;BME280;9136;48.822;7.966;2023-01-25T07:39:16;101757.69;;;1.71;100.00
18022;BME280;9136;48.822;7.966;2023-01-25T07:42:04;101750.72;;;1.69;100.00
18022;BME280;9136;48.822;7.966;2023-01-25T07:44:53;101764.53;;;1.68;100.00
18022;BME280;9136;48.822;7.966;2023-01-25T07:47:43;101768.06;;;1.71;100.00
18022;BME280;9136;48.822;7.966;2023-01-25T07:50:30;101772.41;;;1.72;100.00
18022;BME280;9136;48.822;7.966;2023-01-25T07:53:18;101761.16;;;1.72;100.00
18022;BME280;9136;48.822;7.966;2023-01-25T07:56:06;101775.06;;;1.74;100.00
18022;BME280;9136;48.822;7.966;2023-01-25T07:58:55;101783.84;;;1.79;100.00
18022;BME280;9136;48.822;7.966;2023-01-25T08:01:43;101763.69;;;1.69;100.00
18022;BME280;9136;48.822;7.966;2023-01-25T08:04:33;101779.56;;;1.81;100.00
18022;BME280;9136;48.822;7.966;2023-01-25T08:07:21;101791.81;;;1.87;100.00
18022;BME280;9136;48.822;7.966;2023-01-25T08:10:10;101775.97;;;1.76;100.00
18022;BME280;9136;48.822;7.966;2023-01-25T08:12:58;101756.88;;;1.72;100.00
18022;BME280;9136;48.822;7.966;2023-01-25T08:15:52;101784.13;;;1.90;100.00
18022;BME280;9136;48.822;7.966;2023-01-25T08:18:40;101763.09;;;1.79;100.00
18022;BME280;9136;48.822;7.966;2023-01-25T08:21:31;101779.94;;;1.93;100.00
18022;BME280;9136;48.822;7.966;2023-01-25T08:24:19;101758.19;;;1.88;100.00
18022;BME280;9136;48.822;7.966;2023-01-25T08:27:08;101790.94;;;2.18;100.00
18022;BME280;9136;48.822;7.966;2023-01-25T08:29:56;101775.41;;;2.19;100.00
18022;BME280;9136;48.822;7.966;2023-01-25T08:32:43;101768.56;;;2.21;100.00
18022;BME280;9136;48.822;7.966;2023-01-25T08:35:31;101780.19;;;2.36;100.00
18022;BME280;9136;48.822;7.966;2023-01-25T08:38:22;101785.38;;;2.36;100.00
18022;BME280;9136;48.822;7.966;2023-01-25T08:41:12;101764.31;;;2.23;100.00
18022;BME280;9136;48.822;7.966;2023-01-25T08:44:01;101747.53;;;2.11;100.00
18022;BME280;9136;48.822;7.966;2023-01-25T08:46:49;101768.13;;;2.38;100.00
18022;BME280;9136;48.822;7.966;2023-01-25T08:49:37;101763.00;;;2.41;100.00
18022;BME280;9136;48.822;7.966;2023-01-25T08:52:24;101761.63;;;2.53;100.00
18022;BME280;9136;48.822;7.966;2023-01-25T08:55:14;101755.59;;;2.54;100.00
18022;BME280;9136;48.822;7.966;2023-01-25T08:58:02;101772.44;;;2.72;100.00
18022;BME280;9136;48.822;7.966;2023-01-25T09:00:50;101762.72;;;2.63;100.00
18022;BME280;9136;48.822;7.966;2023-01-25T09:03:39;101733.09;;;2.55;100.00
18022;BME280;9136;48.822;7.966;2023-01-25T09:06:27;101739.38;;;2.63;100.00
18022;BME280;9136;48.822;7.966;2023-01-25T09:09:15;101742.06;;;2.68;100.00
18022;BME280;9136;48.822;7.966;2023-01-25T09:12:06;101736.53;;;2.54;100.00
18022;BME280;9136;48.822;7.966;2023-01-25T09:14:55;101749.41;;;2.51;100.00
18022;BME280;9136;48.822;7.966;2023-01-25T09:17:43;101750.44;;;2.56;100.00
18022;BME280;9136;48.822;7.966;2023-01-25T09:20:31;101738.84;;;2.42;100.00
18022;BME280;9136;48.822;7.966;2023-01-25T09:23:19;101740.53;;;2.41;100.00
18022;BME280;9136;48.822;7.966;2023-01-25T09:26:09;101740.41;;;2.35;100.00
18022;BME280;9136;48.822;7.966;2023-01-25T09:29:02;101769.69;;;2.66;100.00
18022;BME280;9136;48.822;7.966;2023-01-25T09:31:50;101726.81;;;2.45;100.00
18022;BME280;9136;48.822;7.966;2023-01-25T09:34:40;101751.34;;;2.58;100.00
18022;BME280;9136;48.822;7.966;2023-01-25T09:37:28;101752.38;;;2.65;100.00
18022;BME280;9136;48.822;7.966;2023-01-25T09:40:19;101753.84;;;2.53;100.00
18022;BME280;9136;48.822;7.966;2023-01-25T09:43:14;101723.19;;;2.39;100.00
18022;BME280;9136;48.822;7.966;2023-01-25T09:46:17;101733.78;;;2.48;100.00
18022;BME280;9136;48.822;7.966;2023-01-25T09:49:23;101734.56;;;2.44;100.00
18022;BME280;9136;48.822;7.966;2023-01-25T09:52:28;101749.59;;;2.57;100.00
18022;BME280;9136;48.822;7.966;2023-01-25T09:55:24;101757.50;;;2.62;100.00
18022;BME280;9136;48.822;7.966;2023-01-25T09:58:31;101737.19;;;2.45;100.00
18022;BME280;9136;48.822;7.966;2023-01-25T10:01:28;101762.69;;;2.62;100.00
18022;BME280;9136;48.822;7.966;2023-01-25T10:04:23;101732.06;;;2.48;100.00
18022;BME280;9136;48.822;7.966;2023-01-25T10:07:18;101737.94;;;2.41;100.00
18022;BME280;9136;48.822;7.966;2023-01-25T10:10:10;101721.50;;;2.41;100.00
18022;BME280;9136;48.822;7.966;2023-01-25T10:13:00;101733.91;;;2.52;100.00
18022;BME280;9136;48.822;7.966;2023-01-25T10:15:51;101736.69;;;2.60;100.00
18022;BME280;9136;48.822;7.966;2023-01-25T10:18:54;101742.00;;;2.65;100.00
18022;BME280;9136;48.822;7.966;2023-01-25T10:21:46;101725.41;;;2.58;100.00
18022;BME280;9136;48.822;7.966;2023-01-25T10:24:52;101738.41;;;2.59;100.00
18022;BME280;9136;48.822;7.966;2023-01-25T10:27:53;101755.69;;;2.59;100.00
18022;BME280;9136;48.822;7.966;2023-01-25T10:30:48;101728.75;;;2.54;100.00
18022;BME280;9136;48.822;7.966;2023-01-25T10:33:44;101717.94;;;2.36;100.00
18022;BME280;9136;48.822;7.966;2023-01-25T10:36:33;101735.47;;;2.46;100.00
18022;BME280;9136;48.822;7.966;2023-01-25T10:39:22;101726.84;;;2.47;100.00
18022;BME280;9136;48.822;7.966;2023-01-25T10:42:11;101711.06;;;2.38;100.00
18022;BME280;9136;48.822;7.966;2023-01-25T10:45:09;101705.78;;;2.33;100.00
18022;BME280;9136;48.822;7.966;2023-01-25T10:48:01;101746.72;;;2.46;100.00
18022;BME280;9136;48.822;7.966;2023-01-25T10:50:53;101698.88;;;2.34;100.00
18022;BME280;9136;48.822;7.966;2023-01-25T10:53:42;101709.31;;;2.37;100.00
18022;BME280;9136;48.822;7.966;2023-01-25T10:56:32;101707.78;;;2.45;100.00
18022;BME280;9136;48.822;7.966;2023-01-25T10:59:22;101705.56;;;2.24;100.00
18022;BME280;9136;48.822;7.966;2023-01-25T11:02:39;101691.78;;;2.26;100.00
18022;BME280;9136;48.822;7.966;2023-01-25T11:05:32;101685.66;;;2.23;100.00
18022;BME280;9136;48.822;7.966;2023-01-25T11:08:24;101702.22;;;2.29;100.00
18022;BME280;9136;48.822;7.966;2023-01-25T11:11:30;101677.97;;;2.27;100.00
18022;BME280;9136;48.822;7.966;2023-01-25T11:14:22;101677.00;;;2.22;100.00
18022;BME280;9136;48.822;7.966;2023-01-25T11:17:23;101691.09;;;2.34;100.00
18022;BME280;9136;48.822;7.966;2023-01-25T11:20:17;101691.22;;;2.40;100.00
18022;BME280;9136;48.822;7.966;2023-01-25T11:23:22;101681.56;;;2.33;100.00
18022;BME280;9136;48.822;7.966;2023-01-25T11:26:13;101693.09;;;2.45;100.00
18022;BME280;9136;48.822;7.966;2023-01-25T11:29:12;101666.91;;;2.35;100.00
18022;BME280;9136;48.822;7.966;2023-01-25T11:32:01;101667.56;;;2.26;100.00
18022;BME280;9136;48.822;7.966;2023-01-25T11:34:50;101664.31;;;2.35;100.00
18022;BME280;9136;48.822;7.966;2023-01-25T11:37:45;101629.41;;;2.20;100.00
18022;BME280;9136;48.822;7.966;2023-01-25T11:40:44;101670.56;;;2.43;100.00
18022;BME280;9136;48.822;7.966;2023-01-25T11:43:46;101653.94;;;2.35;100.00
18022;BME280;9136;48.822;7.966;2023-01-25T11:46:49;101641.66;;;2.27;100.00
18022;BME280;9136;48.822;7.966;2023-01-25T11:49:46;101633.19;;;2.35;100.00
18022;BME280;9136;48.822;7.966;2023-01-25T11:52:51;101634.16;;;2.40;100.00
18022;BME280;9136;48.822;7.966;2023-01-25T11:55:48;101608.84;;;2.28;100.00
18022;BME280;9136;48.822;7.966;2023-01-25T11:58:57;101610.69;;;2.32;100.00
18022;BME280;9136;48.822;7.966;2023-01-25T12:02:00;101595.84;;;2.26;100.00
18022;BME280;9136;48.822;7.966;2023-01-25T12:08:21;101574.97;;;2.22;100.00
18022;BME280;9136;48.822;7.966;2023-01-25T12:11:18;101603.84;;;2.36;100.00
18022;BME280;9136;48.822;7.966;2023-01-25T12:14:18;101592.63;;;2.37;100.00
18022;BME280;9136;48.822;7.966;2023-01-25T12:17:22;101576.88;;;2.29;100.00
18022;BME280;9136;48.822;7.966;2023-01-25T12:20:45;101552.41;;;2.16;100.00
18022;BME280;9136;48.822;7.966;2023-01-25T12:23:56;101549.97;;;2.22;100.00
18022;BME280;9136;48.822;7.966;2023-01-25T12:26:54;101573.81;;;2.47;100.00
18022;BME280;9136;48.822;7.966;2023-01-25T12:29:48;101563.44;;;2.45;100.00
18022;BME280;9136;48.822;7.966;2023-01-25T12:32:43;101531.19;;;2.34;100.00
18022;BME280;9136;48.822;7.966;2023-01-25T12:35:38;101563.28;;;2.39;100.00
18022;BME280;9136;48.822;7.966;2023-01-25T12:38:32;101550.13;;;2.32;100.00
18022;BME280;9136;48.822;7.966;2023-01-25T12:41:29;101530.34;;;2.35;100.00
18022;BME280;9136;48.822;7.966;2023-01-25T12:44:24;101539.91;;;2.38;100.00
18022;BME280;9136;48.822;7.966;2023-01-25T12:47:17;101506.97;;;2.32;100.00
18022;BME280;9136;48.822;7.966;2023-01-25T12:50:13;101509.59;;;2.34;100.00
18022;BME280;9136;48.822;7.966;2023-01-25T12:53:08;101513.06;;;2.36;100.00
18022;BME280;9136;48.822;7.966;2023-01-25T12:56:00;101505.25;;;2.33;100.00
18022;BME280;9136;48.822;7.966;2023-01-25T12:58:52;101537.50;;;2.47;100.00
18022;BME280;9136;48.822;7.966;2023-01-25T13:01:47;101512.16;;;2.34;100.00
18022;BME280;9136;48.822;7.966;2023-01-25T13:04:47;101501.72;;;2.30;100.00
18022;BME280;9136;48.822;7.966;2023-01-25T13:07:42;101531.28;;;2.39;100.00
18022;BME280;9136;48.822;7.966;2023-01-25T13:10:33;101478.78;;;2.10;100.00
18022;BME280;9136;48.822;7.966;2023-01-25T13:13:27;101481.53;;;2.16;100.00
18022;BME280;9136;48.822;7.966;2023-01-25T13:16:29;101484.13;;;2.16;100.00
18022;BME280;9136;48.822;7.966;2023-01-25T13:19:22;101482.63;;;2.27;100.00
18022;BME280;9136;48.822;7.966;2023-01-25T13:22:59;101489.78;;;2.39;100.00
18022;BME280;9136;48.822;7.966;2023-01-25T13:25:46;101478.31;;;2.27;100.00
18022;BME280;9136;48.822;7.966;2023-01-25T13:28:40;101475.72;;;2.27;100.00
18022;BME280;9136;48.822;7.966;2023-01-25T13:31:52;101453.09;;;2.20;100.00
18022;BME280;9136;48.822;7.966;2023-01-25T13:34:57;101471.63;;;2.37;100.00
18022;BME280;9136;48.822;7.966;2023-01-25T13:37:56;101476.19;;;2.50;100.00
18022;BME280;9136;48.822;7.966;2023-01-25T13:41:07;101477.00;;;2.48;100.00
18022;BME280;9136;48.822;7.966;2023-01-25T13:44:19;101455.34;;;2.44;100.00
18022;BME280;9136;48.822;7.966;2023-01-25T13:47:16;101454.19;;;2.32;100.00
18022;BME280;9136;48.822;7.966;2023-01-25T13:50:17;101440.25;;;2.25;100.00
18022;BME280;9136;48.822;7.966;2023-01-25T13:53:18;101443.88;;;2.33;100.00
18022;BME280;9136;48.822;7.966;2023-01-25T13:56:24;101448.22;;;2.34;100.00
18022;BME280;9136;48.822;7.966;2023-01-25T13:59:25;101426.38;;;2.23;100.00
18022;BME280;9136;48.822;7.966;2023-01-25T14:02:18;101439.47;;;2.30;100.00
18022;BME280;9136;48.822;7.966;2023-01-25T14:05:17;101425.53;;;2.22;100.00
18022;BME280;9136;48.822;7.966;2023-01-25T14:08:09;101443.00;;;2.33;100.00
18022;BME280;9136;48.822;7.966;2023-01-25T14:10:57;101434.09;;;2.21;100.00
18022;BME280;9136;48.822;7.966;2023-01-25T14:13:55;101426.22;;;2.15;100.00
18022;BME280;9136;48.822;7.966;2023-01-25T14:16:44;101433.97;;;2.14;100.00
18022;BME280;9136;48.822;7.966;2023-01-25T14:19:35;101435.72;;;2.15;100.00
18022;BME280;9136;48.822;7.966;2023-01-25T14:22:26;101415.59;;;2.03;100.00
18022;BME280;9136;48.822;7.966;2023-01-25T14:25:16;101427.94;;;2.15;100.00
18022;BME280;9136;48.822;7.966;2023-01-25T14:28:05;101411.50;;;2.13;100.00
18022;BME280;9136;48.822;7.966;2023-01-25T14:30:55;101408.72;;;2.05;100.00
18022;BME280;9136;48.822;7.966;2023-01-25T14:33:43;101416.69;;;2.14;100.00
18022;BME280;9136;48.822;7.966;2023-01-25T14:36:33;101410.66;;;2.14;100.00
18022;BME280;9136;48.822;7.966;2023-01-25T14:39:27;101402.78;;;2.11;100.00
18022;BME280;9136;48.822;7.966;2023-01-25T14:42:16;101407.00;;;2.06;100.00
18022;BME280;9136;48.822;7.966;2023-01-25T14:45:05;101408.13;;;2.18;100.00
18022;BME280;9136;48.822;7.966;2023-01-25T14:47:56;101385.38;;;2.04;100.00
18022;BME280;9136;48.822;7.966;2023-01-25T14:50:43;101415.06;;;2.19;100.00
18022;BME280;9136;48.822;7.966;2023-01-25T14:53:31;101397.59;;;2.11;100.00
18022;BME280;9136;48.822;7.966;2023-01-25T14:56:31;101378.47;;;2.04;100.00
18022;BME280;9136;48.822;7.966;2023-01-25T14:59:29;101357.47;;;1.92;100.00
18022;BME280;9136;48.822;7.966;2023-01-25T15:02:23;101357.53;;;1.93;100.00
18022;BME280;9136;48.822;7.966;2023-01-25T15:05:18;101381.13;;;2.07;100.00
18022;BME280;9136;48.822;7.966;2023-01-25T15:08:26;101353.25;;;1.95;100.00
18022;BME280;9136;48.822;7.966;2023-01-25T15:11:30;101369.94;;;2.10;100.00
18022;BME280;9136;48.822;7.966;2023-01-25T15:14:23;101374.19;;;2.06;100.00